Time;durP1;ratioP1;P1;durP2;ratioP2;P2;SDS_P1;SDS_P2;PMS_P1;PMS_P2;Temp;Humidity;BMP_temperature;BMP_pressure;BME280_temperature;BME280_humidity;BME280_pressure;Samples;Min_cycle;Max_cycle;Signal;HPM_P1;HPM_P2
2023/11/20 00:02:17;;;;;;;10.00;2.08;;;;;;;9.03;100.00;99717.16;4986747;28;20145;-51
2023/11/20 00:04:45;;;;;;;9.55;1.73;;;;;;;8.99;100.00;99713.53;4987733;28;20034;-50
2023/11/20 00:07:12;;;;;;;7.72;1.90;;;;;;;8.96;100.00;99717.00;4986957;28;20053;-47
2023/11/20 00:09:40;;;;;;;11.90;2.05;;;;;;;8.95;100.00;99709.84;4966500;28;20081;-47
2023/11/20 00:12:08;;;;;;;14.82;3.22;;;;;;;8.93;100.00;99709.44;4980001;28;20054;-46
2023/11/20 00:14:37;;;;;;;12.60;1.63;;;;;;;8.88;100.00;99711.66;4970612;28;20531;-49
2023/11/20 00:17:05;;;;;;;16.80;2.75;;;;;;;8.81;100.00;99726.09;4987718;28;20054;-46
2023/11/20 00:19:32;;;;;;;5.85;1.25;;;;;;;8.76;100.00;99723.63;4984823;28;20049;-46
2023/11/20 00:22:00;;;;;;;12.13;2.42;;;;;;;8.74;100.00;99714.06;4987109;28;20057;-46
2023/11/20 00:24:27;;;;;;;16.27;2.47;;;;;;;8.70;100.00;99724.25;4987376;28;20062;-48
2023/11/20 00:26:54;;;;;;;14.98;2.67;;;;;;;8.63;100.00;99713.03;4987563;28;20069;-45
2023/11/20 00:29:22;;;;;;;17.63;2.97;;;;;;;8.59;100.00;99718.47;4987026;28;20038;-45
2023/11/20 00:31:51;;;;;;;18.00;3.92;;;;;;;8.53;100.00;99730.91;4987629;28;20056;-45
2023/11/20 00:34:19;;;;;;;11.82;2.35;;;;;;;8.48;100.00;99733.94;4990048;28;20042;-45
2023/11/20 00:36:46;;;;;;;14.15;2.67;;;;;;;8.43;100.00;99743.28;4991683;28;20050;-47
2023/11/20 00:39:15;;;;;;;8.85;2.30;;;;;;;8.41;100.00;99755.84;4991315;28;20046;-45
2023/11/20 00:41:42;;;;;;;14.93;2.45;;;;;;;8.41;100.00;99750.31;4974021;28;20042;-48
2023/11/20 00:44:13;;;;;;;10.98;2.47;;;;;;;8.38;100.00;99734.47;4986616;28;20080;-48
2023/11/20 00:46:40;;;;;;;11.13;4.57;;;;;;;8.38;100.00;99740.00;4986917;28;20054;-45
2023/11/20 00:49:08;;;;;;;11.35;3.00;;;;;;;8.38;100.00;99740.00;4989280;28;20050;-51
2023/11/20 00:51:36;;;;;;;12.80;3.30;;;;;;;8.39;100.00;99736.09;4990800;28;20046;-46
2023/11/20 00:54:03;;;;;;;13.77;4.07;;;;;;;8.40;100.00;99732.16;4990813;28;20508;-47
2023/11/20 00:56:31;;;;;;;13.00;4.45;;;;;;;8.43;100.00;99731.44;4990038;28;20058;-45
2023/11/20 00:58:58;;;;;;;8.73;3.03;;;;;;;8.43;100.00;99735.00;4989330;28;20917;-45
2023/11/20 01:01:25;;;;;;;16.50;3.60;;;;;;;8.42;100.00;99736.16;4989957;28;20762;-48
2023/11/20 01:03:52;;;;;;;17.65;2.78;;;;;;;8.43;100.00;99742.47;4991010;28;20042;-47
2023/11/20 01:06:20;;;;;;;9.50;2.53;;;;;;;8.46;100.00;99736.25;4990587;28;20053;-49
2023/11/20 01:08:47;;;;;;;13.90;1.88;;;;;;;8.46;100.00;99726.03;4990822;28;20508;-49
2023/11/20 01:11:16;;;;;;;18.55;3.90;;;;;;;8.49;100.00;99728.09;4990686;28;20049;-48
2023/11/20 01:13:43;;;;;;;12.07;3.08;;;;;;;8.50;100.00;99726.09;4990144;28;20082;-48
2023/11/20 01:16:12;;;;;;;10.73;2.38;;;;;;;8.49;100.00;99724.53;4989680;28;20049;-45
2023/11/20 01:18:39;;;;;;;12.48;2.38;;;;;;;8.49;100.00;99713.50;4989708;28;20042;-47
2023/11/20 01:21:08;;;;;;;10.82;3.08;;;;;;;8.49;100.00;99713.50;4990061;28;20046;-45
2023/11/20 01:23:36;;;;;;;7.63;2.20;;;;;;;8.47;100.00;99732.34;4990509;28;20058;-48
2023/11/20 01:26:03;;;;;;;15.00;2.40;;;;;;;8.45;100.00;99740.16;4989905;28;20503;-47
2023/11/20 01:28:30;;;;;;;11.55;2.35;;;;;;;8.42;100.00;99732.59;4990317;28;20716;-46
2023/11/20 01:30:58;;;;;;;8.20;2.85;;;;;;;8.40;100.00;99737.69;4989747;28;20062;-45
2023/11/20 01:33:25;;;;;;;18.30;3.03;;;;;;;8.37;100.00;99727.34;4989884;28;20055;-47
2023/11/20 01:35:52;;;;;;;12.02;2.30;;;;;;;8.33;100.00;99734.75;4989956;28;20050;-46
2023/11/20 01:38:20;;;;;;;28.83;3.78;;;;;;;8.30;100.00;99738.19;4990032;28;20046;-47
2023/11/20 01:40:53;;;;;;;9.95;2.50;;;;;;;8.27;100.00;99733.41;4989217;28;20046;-45
2023/11/20 01:43:21;;;;;;;11.52;3.50;;;;;;;8.26;100.00;99743.59;4989487;28;20046;-45
2023/11/20 01:45:49;;;;;;;11.15;2.20;;;;;;;8.25;100.00;99733.72;4989730;28;20062;-49
2023/11/20 01:48:17;;;;;;;14.45;2.80;;;;;;;8.24;100.00;99739.59;4989606;28;20500;-51
2023/11/20 01:50:44;;;;;;;13.82;2.30;;;;;;;8.22;100.00;99737.19;4989334;28;20051;-47
2023/11/20 01:53:12;;;;;;;10.75;2.53;;;;;;;8.21;100.00;99745.78;4977244;28;20047;-46
2023/11/20 01:55:40;;;;;;;10.40;2.90;;;;;;;8.19;100.00;99732.38;4990157;28;20060;-46
2023/11/20 01:58:08;;;;;;;15.35;3.00;;;;;;;8.19;100.00;99728.81;4989300;28;20054;-48
2023/11/20 02:00:36;;;;;;;9.35;2.22;;;;;;;8.18;100.00;99741.78;4989177;28;20679;-48
2023/11/20 02:03:06;;;;;;;14.60;3.42;;;;;;;8.21;100.00;99751.31;4989399;28;20054;-46
2023/11/20 02:05:34;;;;;;;9.07;1.98;;;;;;;8.24;100.00;99740.38;4989790;28;20631;-47
2023/11/20 02:08:01;;;;;;;12.60;3.05;;;;;;;8.23;100.00;99740.75;4989782;28;20464;-46
2023/11/20 02:10:29;;;;;;;11.70;2.10;;;;;;;8.20;100.00;99745.03;4988879;28;20512;-45
2023/11/20 02:12:58;;;;;;;8.40;2.42;;;;;;;8.20;100.00;99744.22;4989628;28;20501;-46
2023/11/20 02:15:25;;;;;;;8.93;2.90;;;;;;;8.17;100.00;99744.91;4990672;28;20057;-46
2023/11/20 02:17:52;;;;;;;12.82;2.75;;;;;;;8.18;100.00;99752.81;4989158;28;20062;-45
2023/11/20 02:20:23;;;;;;;13.82;2.40;;;;;;;8.21;100.00;99756.81;4989279;28;20054;-47
2023/11/20 02:22:51;;;;;;;13.52;2.33;;;;;;;8.23;100.00;99766.38;4988972;28;20045;-49
2023/11/20 02:25:18;;;;;;;9.55;2.30;;;;;;;8.24;100.00;99767.16;4989185;28;20069;-45
2023/11/20 02:27:58;;;;;;;10.32;2.53;;;;;;;8.26;100.00;99751.09;4988926;28;20054;-47
2023/11/20 02:30:27;;;;;;;15.98;2.58;;;;;;;8.28;100.00;99755.13;4987973;28;20512;-48
2023/11/20 02:32:55;;;;;;;10.63;2.60;;;;;;;8.28;100.00;99746.03;4989403;28;20050;-47
2023/11/20 02:35:24;;;;;;;12.48;2.90;;;;;;;8.27;100.00;99744.41;4988707;28;20420;-45
2023/11/20 02:37:53;;;;;;;15.63;3.35;;;;;;;8.25;100.00;99758.53;4989028;28;20059;-47
2023/11/20 02:40:21;;;;;;;16.42;2.97;;;;;;;8.23;100.00;99760.06;4989038;28;20050;-45
2023/11/20 02:42:48;;;;;;;8.77;2.00;;;;;;;8.20;100.00;99769.84;4989229;28;20039;-46
2023/11/20 02:45:16;;;;;;;10.93;2.58;;;;;;;8.18;100.00;99769.38;4988481;28;20050;-45
2023/11/20 02:47:43;;;;;;;14.48;2.13;;;;;;;8.19;100.00;99778.44;4988717;28;20065;-50
2023/11/20 02:50:10;;;;;;;4.45;2.35;;;;;;;8.16;100.00;99776.38;4988519;28;20077;-49
2023/11/20 02:52:38;;;;;;;9.13;2.97;;;;;;;8.17;100.00;99783.50;4988618;28;20416;-45
2023/11/20 02:55:06;;;;;;;6.47;2.28;;;;;;;8.16;100.00;99779.16;4987421;28;20069;-46
2023/11/20 02:57:34;;;;;;;11.32;2.03;;;;;;;8.17;100.00;99778.00;4987746;28;20050;-46
2023/11/20 03:00:02;;;;;;;19.75;2.70;;;;;;;8.18;100.00;99779.63;4988189;28;20381;-45
2023/11/20 03:02:29;;;;;;;15.98;3.67;;;;;;;8.18;100.00;99785.13;5083380;22;20054;-49
2023/11/20 03:04:57;;;;;;;8.45;2.63;;;;;;;8.16;100.00;99776.38;4987346;28;20050;-48
2023/11/20 03:07:24;;;;;;;15.25;4.53;;;;;;;8.17;100.00;99792.59;4988479;28;20527;-45
2023/11/20 03:09:51;;;;;;;16.88;4.97;;;;;;;8.18;100.00;99790.66;4988398;28;20381;-46
2023/11/20 03:12:19;;;;;;;11.85;4.25;;;;;;;8.19;100.00;99792.22;4987490;28;20145;-45
2023/11/20 03:14:46;;;;;;;9.70;4.55;;;;;;;8.21;100.00;99796.22;4987480;28;20046;-49
2023/11/20 03:17:14;;;;;;;16.27;4.43;;;;;;;8.22;100.00;99789.56;4987401;28;20054;-50
2023/11/20 03:19:41;;;;;;;10.43;3.20;;;;;;;8.24;100.00;99797.47;4987586;28;20054;-51
2023/11/20 03:22:08;;;;;;;14.27;3.55;;;;;;;8.25;100.00;99790.81;4988036;28;20042;-47
2023/11/20 03:24:36;;;;;;;12.98;4.05;;;;;;;8.29;100.00;99794.50;4985920;28;20542;-48
2023/11/20 03:27:04;;;;;;;15.57;3.53;;;;;;;8.30;100.00;99793.34;4987338;28;20057;-48
2023/11/20 03:29:31;;;;;;;7.75;3.05;;;;;;;8.29;100.00;99794.50;4987276;28;20039;-48
2023/11/20 03:31:58;;;;;;;13.60;3.38;;;;;;;8.29;100.00;99805.53;4987296;28;20046;-45
2023/11/20 03:34:26;;;;;;;7.60;3.30;;;;;;;8.28;100.00;99807.50;4987660;28;20051;-45
2023/11/20 03:36:54;;;;;;;16.40;3.50;;;;;;;8.28;100.00;99812.22;4987969;28;20046;-46
2023/11/20 03:39:21;;;;;;;14.70;3.85;;;;;;;8.28;100.00;99812.22;4987736;28;20054;-46
2023/11/20 03:41:48;;;;;;;16.98;2.92;;;;;;;8.28;100.00;99824.06;4987209;28;20042;-45
2023/11/20 03:44:16;;;;;;;15.07;3.65;;;;;;;8.28;100.00;99826.81;4987250;28;20089;-47
2023/11/20 03:46:43;;;;;;;11.40;4.38;;;;;;;8.28;100.00;99837.03;4984758;28;20038;-47
2023/11/20 03:49:10;;;;;;;8.75;4.00;;;;;;;8.28;100.00;99845.31;4969524;28;20053;-47
2023/11/20 03:51:38;;;;;;;11.77;3.30;;;;;;;8.31;100.00;99850.13;4986977;28;20051;-45
2023/11/20 03:54:07;;;;;;;9.93;3.50;;;;;;;8.31;100.00;99844.59;4987998;28;20062;-49
2023/11/20 03:56:35;;;;;;;16.63;3.40;;;;;;;8.32;100.00;99846.19;4987209;28;20034;-45
2023/11/20 03:59:02;;;;;;;10.75;3.22;;;;;;;8.32;100.00;99843.44;4987497;28;20049;-46
2023/11/20 04:01:29;;;;;;;11.73;4.00;;;;;;;8.32;100.00;99846.19;4980061;28;20049;-47
2023/11/20 04:03:57;;;;;;;14.98;5.30;;;;;;;8.30;100.00;99848.50;4999011;28;20447;-49
2023/11/20 04:06:25;;;;;;;12.10;3.75;;;;;;;8.30;100.00;99854.03;5007038;28;20072;-45
2023/11/20 04:08:52;;;;;;;12.50;4.60;;;;;;;8.29;100.00;99852.41;5005589;28;20060;-47
2023/11/20 04:11:20;;;;;;;16.27;3.92;;;;;;;8.28;100.00;99850.81;5004803;28;20052;-47
2023/11/20 04:13:47;;;;;;;8.05;4.63;;;;;;;8.27;100.00;99854.72;5006979;28;20061;-47
2023/11/20 04:16:14;;;;;;;7.47;3.97;;;;;;;8.26;100.00;99861.38;5006815;28;20487;-48
2023/11/20 04:18:44;;;;;;;9.93;3.95;;;;;;;8.25;100.00;99857.00;5006504;28;20053;-48
2023/11/20 04:21:12;;;;;;;11.95;4.22;;;;;;;8.26;100.00;99858.63;5007184;28;20042;-49
2023/11/20 04:23:40;;;;;;;9.18;4.05;;;;;;;8.25;100.00;99857.00;5007292;28;20506;-49
2023/11/20 04:26:07;;;;;;;10.20;3.70;;;;;;;8.25;100.00;99857.00;5006933;28;20077;-45
2023/11/20 04:28:35;;;;;;;14.60;4.05;;;;;;;8.26;100.00;99861.38;5006481;28;20053;-45
2023/11/20 04:31:03;;;;;;;17.13;6.65;;;;;;;8.26;100.00;99869.66;5004652;28;20492;-47
2023/11/20 04:33:30;;;;;;;18.80;5.13;;;;;;;8.27;100.00;99858.28;5006874;28;20416;-49
2023/11/20 04:36:01;;;;;;;11.25;4.00;;;;;;;8.28;100.00;99870.13;5005831;28;20082;-50
2023/11/20 04:38:30;;;;;;;16.30;5.63;;;;;;;8.29;100.00;99874.47;5006804;28;20511;-46
2023/11/20 04:40:59;;;;;;;14.63;5.57;;;;;;;8.29;100.00;99877.22;5006887;28;20119;-45
2023/11/20 04:43:26;;;;;;;14.50;5.03;;;;;;;8.28;100.00;99878.41;5006016;28;20042;-47
2023/11/20 04:45:53;;;;;;;18.02;5.20;;;;;;;8.28;100.00;99889.44;5006977;28;20038;-47
2023/11/20 04:48:21;;;;;;;16.42;5.30;;;;;;;8.29;100.00;99879.97;5004846;28;20053;-49
2023/11/20 04:50:48;;;;;;;14.70;5.03;;;;;;;8.28;100.00;99895.75;5006460;28;20053;-47
2023/11/20 04:53:15;;;;;;;15.30;5.47;;;;;;;8.31;100.00;99883.22;5006632;28;20502;-46
2023/11/20 04:55:42;;;;;;;12.23;4.50;;;;;;;8.31;100.00;99894.25;5006221;28;20388;-50
2023/11/20 04:58:10;;;;;;;18.58;4.57;;;;;;;8.31;100.00;99899.75;5006890;28;20050;-46
2023/11/20 05:00:38;;;;;;;15.75;4.97;;;;;;;8.33;100.00;99912.03;5003886;28;20042;-45
2023/11/20 05:03:05;;;;;;;17.00;5.15;;;;;;;8.34;100.00;99908.13;4986328;28;20062;-51
2023/11/20 05:05:33;;;;;;;12.10;4.20;;;;;;;8.35;100.00;99911.69;4985967;28;20046;-45
2023/11/20 05:08:00;;;;;;;17.15;5.45;;;;;;;8.36;100.00;99913.31;4986860;28;20050;-47
2023/11/20 05:10:27;;;;;;;10.48;4.63;;;;;;;8.36;100.00;99910.53;4986660;28;20056;-45
2023/11/20 05:12:55;;;;;;;16.40;4.60;;;;;;;8.37;100.00;99915.69;4986735;28;20053;-46
2023/11/20 05:15:22;;;;;;;12.55;4.68;;;;;;;8.39;100.00;99912.59;4985916;28;20512;-44
2023/11/20 05:17:49;;;;;;;21.30;5.60;;;;;;;8.40;100.00;99912.25;4968827;28;20428;-45
2023/11/20 05:20:17;;;;;;;14.25;3.78;;;;;;;8.41;100.00;99918.56;4987596;28;20504;-50
2023/11/20 05:22:45;;;;;;;14.40;4.13;;;;;;;8.43;100.00;99925.34;4989725;28;20061;-47
2023/11/20 05:25:12;;;;;;;12.98;4.03;;;;;;;8.44;100.00;99926.13;4990056;28;20899;-45
2023/11/20 05:27:39;;;;;;;17.63;4.15;;;;;;;8.45;100.00;99933.25;4990189;28;20034;-44
2023/11/20 05:30:11;;;;;;;20.95;4.72;;;;;;;8.47;100.00;99936.47;4990014;28;20830;-48
2023/11/20 05:32:39;;;;;;;7.88;3.13;;;;;;;8.49;100.00;99942.44;4989928;28;20050;-47
2023/11/20 05:35:06;;;;;;;11.32;3.10;;;;;;;8.50;100.00;99944.84;4989712;28;20053;-46
2023/11/20 05:37:33;;;;;;;16.35;3.83;;;;;;;8.53;100.00;99948.84;4984923;28;20631;-45
2023/11/20 05:40:01;;;;;;;25.90;5.07;;;;;;;8.54;100.00;99947.69;4989783;28;20579;-45
2023/11/20 05:42:28;;;;;;;14.13;3.58;;;;;;;8.57;100.00;99952.53;4977117;28;20057;-45
2023/11/20 05:44:55;;;;;;;15.18;3.83;;;;;;;8.59;100.00;99958.50;4990050;28;20051;-46
2023/11/20 05:47:23;;;;;;;10.38;3.47;;;;;;;8.60;100.00;99971.13;4988800;28;20563;-46
2023/11/20 05:49:51;;;;;;;14.07;4.10;;;;;;;8.61;100.00;99969.97;4988848;28;20045;-50
2023/11/20 05:52:19;;;;;;;15.48;4.22;;;;;;;8.62;100.00;99977.09;4988376;28;20050;-45
2023/11/20 05:54:46;;;;;;;8.60;3.53;;;;;;;8.63;100.00;99978.69;4989389;28;20066;-44
2023/11/20 05:57:13;;;;;;;8.20;2.95;;;;;;;8.64;100.00;99969.28;4989791;28;20511;-45
2023/11/20 05:59:44;;;;;;;8.70;2.78;;;;;;;8.65;100.00;99981.94;4989952;28;20047;-44
2023/11/20 06:02:12;;;;;;;9.48;3.30;;;;;;;8.67;100.00;99987.88;4988914;28;20058;-47
2023/11/20 06:04:39;;;;;;;11.10;2.97;;;;;;;8.69;100.00;99993.84;4988280;28;20404;-47
2023/11/20 06:07:06;;;;;;;10.88;3.70;;;;;;;8.70;100.00;100005.69;4989910;28;20512;-52
2023/11/20 06:09:34;;;;;;;8.60;3.40;;;;;;;8.72;100.00;100014.41;4985613;28;20057;-49
2023/11/20 06:12:02;;;;;;;6.55;2.80;;;;;;;8.72;100.00;100001.44;4969265;28;20456;-46
2023/11/20 06:14:29;;;;;;;10.25;2.75;;;;;;;8.74;100.00;100006.59;4987699;28;20051;-47
2023/11/20 06:16:56;;;;;;;9.48;2.78;;;;;;;8.76;100.00;100016.16;4989399;28;20046;-45
2023/11/20 06:19:27;;;;;;;8.13;2.25;;;;;;;8.78;100.00;100016.59;4988846;28;20034;-47
2023/11/20 06:21:55;;;;;;;4.27;2.20;;;;;;;8.80;100.00;100025.31;4990223;28;20054;-46
2023/11/20 06:24:22;;;;;;;6.78;1.50;;;;;;;8.82;100.00;100022.19;4986830;28;20042;-45
2023/11/20 06:26:50;;;;;;;4.90;2.03;;;;;;;8.85;100.00;100036.09;4989179;28;20039;-45
2023/11/20 06:29:17;;;;;;;5.10;2.08;;;;;;;8.89;100.00;100042.56;4988557;28;20054;-48
2023/11/20 06:31:44;;;;;;;6.70;2.50;;;;;;;8.93;100.00;100048.97;4988714;28;20513;-51
2023/11/20 06:34:12;;;;;;;7.50;2.30;;;;;;;8.96;100.00;100052.97;4987773;28;20543;-45
2023/11/20 06:36:39;;;;;;;5.15;2.35;;;;;;;8.98;100.00;100057.00;4987731;28;20061;-45
2023/11/20 06:39:06;;;;;;;4.75;1.98;;;;;;;9.01;100.00;100059.06;4988263;28;20066;-46
2023/11/20 06:41:34;;;;;;;6.32;2.42;;;;;;;9.04;100.00;100063.88;4988781;28;20050;-45
2023/11/20 06:44:01;;;;;;;7.13;2.65;;;;;;;9.07;100.00;100056.84;4983618;28;20047;-46
2023/11/20 06:46:29;;;;;;;4.18;2.83;;;;;;;9.10;100.00;100075.47;4987576;28;20061;-46
2023/11/20 06:48:56;;;;;;;5.63;2.03;;;;;;;9.11;100.00;100077.88;4975599;28;20062;-45
2023/11/20 06:51:23;;;;;;;7.60;2.20;;;;;;;9.13;100.00;100077.53;4987887;28;20043;-46
2023/11/20 06:53:51;;;;;;;6.95;2.42;;;;;;;9.14;100.00;100099.28;4988337;28;20054;-49
2023/11/20 06:56:19;;;;;;;7.28;2.58;;;;;;;9.15;100.00;100089.84;4987033;28;20529;-47
2023/11/20 06:58:47;;;;;;;5.32;2.05;;;;;;;9.16;100.00;100102.47;4988253;28;20057;-45
2023/11/20 07:01:14;;;;;;;5.22;2.15;;;;;;;9.18;100.00;100113.19;4987270;28;20051;-46
2023/11/20 07:03:45;;;;;;;10.70;2.97;;;;;;;9.19;100.00;100123.88;4987500;28;20061;-47
2023/11/20 07:06:14;;;;;;;3.55;1.70;;;;;;;9.18;100.00;100111.25;4988115;28;20535;-47
2023/11/20 07:08:42;;;;;;;4.20;2.00;;;;;;;9.21;100.00;100125.50;4988354;28;20043;-46
2023/11/20 07:11:10;;;;;;;10.68;1.67;;;;;;;9.19;100.00;100118.34;4987999;28;20054;-45
2023/11/20 07:13:37;;;;;;;2.25;1.52;;;;;;;9.22;100.00;100127.06;4988085;28;20057;-45
2023/11/20 07:16:05;;;;;;;3.42;1.92;;;;;;;9.22;100.00;100133.41;4987403;28;20054;-45
2023/11/20 07:18:33;;;;;;;2.25;1.60;;;;;;;9.22;100.00;100133.41;4988373;28;20050;-46
2023/11/20 07:21:00;;;;;;;3.78;1.90;;;;;;;9.24;100.00;100135.84;4986703;28;20047;-46
2023/11/20 07:23:28;;;;;;;5.03;2.00;;;;;;;9.23;100.00;100148.84;4986018;28;20050;-45
2023/11/20 07:25:55;;;;;;;4.55;1.50;;;;;;;9.23;100.00;100148.84;4970279;28;20046;-44
2023/11/20 07:28:22;;;;;;;1.83;1.38;;;;;;;9.25;100.00;100170.56;4984142;28;20054;-45
2023/11/20 07:30:49;;;;;;;3.25;1.27;;;;;;;9.23;100.00;100167.38;4986746;28;20831;-44
2023/11/20 07:33:17;;;;;;;3.25;1.38;;;;;;;9.22;100.00;100174.84;4987727;28;20412;-51
2023/11/20 07:35:44;;;;;;;3.13;1.30;;;;;;;9.24;100.00;100185.56;4987706;28;20054;-45
2023/11/20 07:38:11;;;;;;;2.75;1.30;;;;;;;9.24;100.00;100185.56;4987636;28;20830;-46
2023/11/20 07:40:39;;;;;;;2.13;1.00;;;;;;;9.23;100.00;100187.50;4987658;28;20054;-46
2023/11/20 07:43:07;;;;;;;1.73;0.82;;;;;;;9.24;100.00;100196.59;4987114;28;20145;-48
2023/11/20 07:45:35;;;;;;;5.35;1.88;;;;;;;9.25;100.00;100192.66;4987146;28;20046;-46
2023/11/20 07:48:04;;;;;;;3.08;1.48;;;;;;;9.27;100.00;100206.94;4987692;28;20057;-47
2023/11/20 07:50:31;;;;;;;1.65;1.00;;;;;;;9.29;100.00;100213.75;4988713;28;20046;-46
2023/11/20 07:52:59;;;;;;;1.27;0.95;;;;;;;9.32;100.00;100223.28;4987550;28;20054;-45
2023/11/20 07:55:27;;;;;;;2.83;0.82;;;;;;;9.33;100.00;100217.41;4980872;28;20090;-49
2023/11/20 07:57:54;;;;;;;4.72;0.95;;;;;;;9.33;100.00;100225.69;4987790;28;20129;-44
2023/11/20 08:00:22;;;;;;;1.17;0.95;;;;;;;9.33;100.00;100231.22;4987816;28;20061;-46
2023/11/20 08:02:49;;;;;;;1.60;1.20;;;;;;;9.33;100.00;100236.72;5018642;28;20058;-51
2023/11/20 08:05:19;;;;;;;2.67;0.70;;;;;;;9.33;100.00;100245.03;5007484;28;20053;-47
2023/11/20 08:07:48;;;;;;;4.20;0.82;;;;;;;9.34;100.00;100256.88;5007350;28;20054;-46
2023/11/20 08:10:18;;;;;;;1.90;0.85;;;;;;;9.34;100.00;100262.41;5007013;28;20412;-47
2023/11/20 08:12:46;;;;;;;5.68;1.77;;;;;;;9.35;100.00;100262.03;5006506;28;20058;-49
2023/11/20 08:15:13;;;;;;;4.20;0.60;;;;;;;9.37;100.00;100272.75;5005176;28;20052;-47
2023/11/20 08:17:41;;;;;;;1.58;0.60;;;;;;;9.38;100.00;100274.34;5007071;28;20479;-49
2023/11/20 08:20:10;;;;;;;2.20;0.60;;;;;;;9.39;100.00;100287.03;5007308;28;20058;-45
2023/11/20 08:22:38;;;;;;;1.13;0.45;;;;;;;9.39;100.00;100287.03;5006513;28;20052;-47
2023/11/20 08:25:06;;;;;;;0.45;0.40;;;;;;;9.40;100.00;100296.94;5007421;28;20365;-46
2023/11/20 08:27:33;;;;;;;0.30;0.30;;;;;;;9.41;100.00;100312.34;5006590;28;20403;-47
2023/11/20 08:30:01;;;;;;;1.55;0.40;;;;;;;9.43;100.00;100310.03;5006761;28;20060;-46
2023/11/20 08:32:28;;;;;;;0.57;0.30;;;;;;;9.44;100.00;100311.66;5004712;28;20061;-49
2023/11/20 08:34:55;;;;;;;1.73;0.35;;;;;;;9.46;100.00;100314.88;5005615;28;20714;-48
2023/11/20 08:37:23;;;;;;;2.58;0.40;;;;;;;9.47;100.00;100322.00;5006191;28;20077;-47
2023/11/20 08:39:51;;;;;;;1.63;0.82;;;;;;;9.47;100.00;100322.00;5005647;28;20061;-50
2023/11/20 08:42:20;;;;;;;1.02;0.45;;;;;;;9.47;100.00;100322.81;5005948;28;20080;-46
2023/11/20 08:44:47;;;;;;;0.70;0.40;;;;;;;9.47;100.00;100322.00;5006344;28;20056;-46
2023/11/20 08:47:14;;;;;;;1.63;0.50;;;;;;;9.47;100.00;100324.78;5006819;28;20049;-47
2023/11/20 08:49:42;;;;;;;1.52;0.20;;;;;;;9.48;100.00;100334.66;5022132;28;20042;-46
2023/11/20 08:52:09;;;;;;;2.50;0.40;;;;;;;9.47;100.00;100328.34;4998828;28;20050;-44
2023/11/20 08:54:40;;;;;;;2.88;0.43;;;;;;;9.49;100.00;100341.81;4999524;28;20050;-46
2023/11/20 08:57:07;;;;;;;2.28;0.98;;;;;;;9.50;100.00;100344.25;5010641;28;20045;-41
2023/11/20 08:59:35;;;;;;;1.92;1.10;;;;;;;9.54;100.00;100334.09;5008678;28;20499;-44
2023/11/20 09:02:03;;;;;;;4.18;2.08;;;;;;;9.54;100.00;100347.09;4998729;28;20053;-46
2023/11/20 09:04:30;;;;;;;4.05;1.98;;;;;;;9.53;100.00;100354.56;4989494;28;20054;-45
2023/11/20 09:06:58;;;;;;;3.47;1.38;;;;;;;9.55;100.00;100362.53;4990455;28;20065;-45
2023/11/20 09:09:25;;;;;;;4.05;0.60;;;;;;;9.56;100.00;100364.94;4989422;28;20058;-45
2023/11/20 09:11:53;;;;;;;3.72;0.47;;;;;;;9.57;100.00;100374.84;4989991;28;20054;-47
2023/11/20 09:14:20;;;;;;;0.80;0.30;;;;;;;9.58;100.00;100383.94;4990542;28;20042;-47
2023/11/20 09:16:48;;;;;;;1.00;0.35;;;;;;;9.58;100.00;100395.00;4988982;28;20050;-45
2023/11/20 09:19:15;;;;;;;1.58;0.60;;;;;;;9.59;100.00;100391.06;4972868;28;20065;-46
2023/11/20 09:21:42;;;;;;;0.57;0.30;;;;;;;9.59;100.00;100413.19;4990376;28;20050;-47
2023/11/20 09:24:10;;;;;;;4.57;0.40;;;;;;;9.61;100.00;100410.91;4990265;28;20743;-47
2023/11/20 09:26:41;;;;;;;4.95;1.25;;;;;;;9.61;100.00;100413.66;4989337;28;20046;-44
2023/11/20 09:29:10;;;;;;;5.25;0.70;;;;;;;9.62;100.00;100418.03;4989486;28;20050;-45
2023/11/20 09:31:37;;;;;;;0.65;0.40;;;;;;;9.61;100.00;100411.69;4988826;28;20046;-45
2023/11/20 09:34:06;;;;;;;1.50;0.40;;;;;;;9.63;100.00;100419.66;4987513;28;20507;-47
2023/11/20 09:36:33;;;;;;;1.02;0.30;;;;;;;9.65;100.00;100422.84;4984837;28;20050;-44
2023/11/20 09:39:01;;;;;;;1.02;0.20;;;;;;;9.67;100.00;100426.06;4988000;28;20046;-45
2023/11/20 09:41:29;;;;;;;2.25;0.30;;;;;;;9.70;100.00;100425.38;4988996;28;20057;-47
2023/11/20 09:43:57;;;;;;;2.47;0.95;;;;;;;9.73;100.00;100430.22;4970324;28;20057;-45
2023/11/20 09:46:28;;;;;;;2.45;0.70;;;;;;;9.76;100.00;100432.28;4986147;28;20058;-44
2023/11/20 09:48:57;;;;;;;3.95;0.70;;;;;;;9.79;100.00;100435.16;4978941;28;20132;-45
2023/11/20 09:51:25;;;;;;;1.52;0.70;;;;;;;9.82;100.00;100439.22;4984477;28;20396;-46
2023/11/20 09:53:56;;;;;;;1.02;0.57;;;;;;;9.85;100.00;100437.72;4981494;28;20054;-45
2023/11/20 09:56:24;;;;;;;4.80;1.10;;;;;;;9.88;100.00;100446.09;4987300;28;20846;-46
2023/11/20 09:58:51;;;;;;;0.90;0.20;;;;;;;9.90;100.00;100449.31;4986877;28;20693;-44
2023/11/20 10:01:19;;;;;;;2.40;0.47;;;;;;;9.93;100.00;100453.38;4987998;28;20058;-44
2023/11/20 10:03:51;;;;;;;3.53;0.65;;;;;;;9.96;100.00;100456.22;4987902;28;20397;-46
2023/11/20 10:06:21;;;;;;;0.30;0.22;;;;;;;9.99;100.00;100458.28;4986709;28;20042;-45
2023/11/20 10:08:50;;;;;;;1.02;0.52;;;;;;;10.01;100.00;100464.28;4988313;28;20053;-45
2023/11/20 10:11:22;;;;;;;3.58;0.80;;;;;;;10.03;100.00;100472.25;4987235;28;20050;-45
2023/11/20 10:13:51;;;;;;;3.88;1.10;;;;;;;10.03;100.00;100481.34;4980329;28;20401;-45
2023/11/20 10:16:22;;;;;;;2.95;0.73;;;;;;;10.04;100.00;100480.19;4988295;28;20057;-44
2023/11/20 10:18:54;;;;;;;3.92;1.13;;;;;;;10.05;100.00;100490.09;4978853;28;20409;-45
2023/11/20 10:21:22;;;;;;;3.35;0.68;;;;;;;10.06;100.00;100491.69;4987754;28;20061;-47
2023/11/20 10:23:52;;;;;;;2.28;0.60;;;;;;;10.07;100.00;100501.63;4988031;28;20069;-50
2023/11/20 10:26:21;;;;;;;7.75;0.55;;;;;;;10.07;100.00;100501.63;4987249;28;20050;-49
2023/11/20 10:28:48;;;;;;;2.47;0.60;;;;;;;10.07;100.00;100511.88;4987573;28;20057;-46
2023/11/20 10:31:15;;;;;;;0.93;0.40;;;;;;;10.06;100.00;100508.28;4986986;28;20046;-45
2023/11/20 10:33:43;;;;;;;2.55;0.73;;;;;;;10.03;100.00;100522.84;4987261;28;20046;-46
2023/11/20 10:36:13;;;;;;;2.03;0.63;;;;;;;10.02;100.00;100525.94;4987616;28;20041;-47
2023/11/20 10:38:44;;;;;;;6.82;1.70;;;;;;;10.01;100.00;100519.59;4993819;28;20077;-45
2023/11/20 10:41:12;;;;;;;1.60;0.40;;;;;;;9.99;100.00;100527.44;4978738;28;20058;-49
2023/11/20 10:43:40;;;;;;;2.13;0.45;;;;;;;9.99;100.00;100524.66;4969560;28;20038;-48
2023/11/20 10:46:09;;;;;;;4.30;0.68;;;;;;;10.00;100.00;100525.47;4987755;28;20690;-44
2023/11/20 10:48:37;;;;;;;2.05;1.08;;;;;;;10.02;100.00;100537.81;4986537;28;20050;-45
2023/11/20 10:51:08;;;;;;;5.88;2.28;;;;;;;10.03;100.00;100535.84;4986953;28;20050;-45
2023/11/20 10:53:40;;;;;;;1.80;0.47;;;;;;;10.06;100.00;100535.94;4986681;28;20169;-45
2023/11/20 10:56:13;;;;;;;2.53;0.60;;;;;;;10.10;100.00;100539.66;4986854;28;20055;-44
2023/11/20 10:58:43;;;;;;;3.15;0.85;;;;;;;10.14;100.00;100534.28;4986801;28;20558;-46
2023/11/20 11:01:11;;;;;;;2.17;0.50;;;;;;;10.16;100.00;100538.31;4986075;28;20054;-46
2023/11/20 11:03:41;;;;;;;2.03;0.55;;;;;;;10.21;100.00;100531.72;4986032;28;20492;-49
2023/11/20 11:06:10;;;;;;;2.35;0.70;;;;;;;10.21;100.00;100546.38;4987351;28;20063;-46
2023/11/20 11:08:45;;;;;;;7.68;0.50;;;;;;;10.22;100.00;100550.72;4987504;28;20057;-45
2023/11/20 11:11:15;;;;;;;3.55;0.85;;;;;;;10.22;100.00;100564.56;4985022;28;20062;-45
2023/11/20 11:13:43;;;;;;;2.60;0.52;;;;;;;10.20;100.00;100558.56;4986898;28;20054;-46
2023/11/20 11:16:25;;;;;;;1.30;0.40;;;;;;;10.19;100.00;100562.47;4986929;28;20053;-45
2023/11/20 11:19:02;;;;;;;3.17;0.85;;;;;;;10.18;100.00;100557.31;4986142;28;20057;-45
2023/11/20 11:21:38;;;;;;;3.75;0.90;;;;;;;10.20;100.00;100555.00;4975182;28;20046;-45
2023/11/20 11:24:10;;;;;;;8.02;0.82;;;;;;;10.19;100.00;100554.19;4982753;28;20046;-44
2023/11/20 11:26:48;;;;;;;2.92;0.52;;;;;;;10.20;100.00;100555.81;4985760;28;20046;-46
2023/11/20 11:29:20;;;;;;;5.00;0.90;;;;;;;10.18;100.00;100558.13;4985939;28;20047;-44